sensor_id;sensor_type;location;lat;lon;timestamp;temperature;humidity
5940;DHT22;2995;-31.998;115.906;2023-08-08T00:02:09;16.60;99.90
5940;DHT22;2995;-31.998;115.906;2023-08-08T00:04:40;16.60;99.90
5940;DHT22;2995;-31.998;115.906;2023-08-08T00:07:12;16.50;99.90
5940;DHT22;2995;-31.998;115.906;2023-08-08T00:09:43;16.70;99.90
5940;DHT22;2995;-31.998;115.906;2023-08-08T00:12:16;16.70;99.90
5940;DHT22;2995;-31.998;115.906;2023-08-08T00:14:47;16.80;99.90
5940;DHT22;2995;-31.998;115.906;2023-08-08T00:17:19;16.90;99.90
5940;DHT22;2995;-31.998;115.906;2023-08-08T00:19:50;16.90;99.90
5940;DHT22;2995;-31.998;115.906;2023-08-08T00:22:21;16.90;99.90
5940;DHT22;2995;-31.998;115.906;2023-08-08T00:24:53;16.90;99.90
5940;DHT22;2995;-31.998;115.906;2023-08-08T00:27:26;17.00;99.90
5940;DHT22;2995;-31.998;115.906;2023-08-08T00:29:57;17.00;99.90
5940;DHT22;2995;-31.998;115.906;2023-08-08T00:32:28;16.90;99.90
5940;DHT22;2995;-31.998;115.906;2023-08-08T00:35:00;17.00;99.90
5940;DHT22;2995;-31.998;115.906;2023-08-08T00:37:31;17.00;99.90
5940;DHT22;2995;-31.998;115.906;2023-08-08T00:40:02;17.00;99.90
5940;DHT22;2995;-31.998;115.906;2023-08-08T00:42:36;17.10;99.90
5940;DHT22;2995;-31.998;115.906;2023-08-08T00:45:08;17.20;99.90
5940;DHT22;2995;-31.998;115.906;2023-08-08T00:47:39;17.10;99.90
5940;DHT22;2995;-31.998;115.906;2023-08-08T00:50:11;17.10;99.90
5940;DHT22;2995;-31.998;115.906;2023-08-08T00:52:44;17.00;99.90
5940;DHT22;2995;-31.998;115.906;2023-08-08T00:55:15;17.10;99.90
5940;DHT22;2995;-31.998;115.906;2023-08-08T00:57:49;17.20;99.90
5940;DHT22;2995;-31.998;115.906;2023-08-08T01:00:20;17.20;99.90
5940;DHT22;2995;-31.998;115.906;2023-08-08T01:02:52;17.30;99.90
5940;DHT22;2995;-31.998;115.906;2023-08-08T01:05:23;17.60;99.90
5940;DHT22;2995;-31.998;115.906;2023-08-08T01:07:59;17.60;99.90
5940;DHT22;2995;-31.998;115.906;2023-08-08T01:10:37;17.70;99.90
5940;DHT22;2995;-31.998;115.906;2023-08-08T01:13:12;17.70;99.90
5940;DHT22;2995;-31.998;115.906;2023-08-08T01:15:46;17.80;99.90
5940;DHT22;2995;-31.998;115.906;2023-08-08T01:18:18;17.90;99.90
5940;DHT22;2995;-31.998;115.906;2023-08-08T01:20:50;18.00;99.90
5940;DHT22;2995;-31.998;115.906;2023-08-08T01:23:30;18.10;99.90
5940;DHT22;2995;-31.998;115.906;2023-08-08T01:26:03;18.20;99.90
5940;DHT22;2995;-31.998;115.906;2023-08-08T01:28:35;18.40;99.90
5940;DHT22;2995;-31.998;115.906;2023-08-08T01:31:06;18.40;99.90
5940;DHT22;2995;-31.998;115.906;2023-08-08T01:33:38;18.50;99.90
5940;DHT22;2995;-31.998;115.906;2023-08-08T01:36:12;18.60;99.90
5940;DHT22;2995;-31.998;115.906;2023-08-08T01:38:46;18.70;99.90
5940;DHT22;2995;-31.998;115.906;2023-08-08T01:41:21;18.70;99.90
5940;DHT22;2995;-31.998;115.906;2023-08-08T01:43:53;18.80;99.90
5940;DHT22;2995;-31.998;115.906;2023-08-08T01:46:25;18.90;99.90
5940;DHT22;2995;-31.998;115.906;2023-08-08T01:48:59;18.90;99.90
5940;DHT22;2995;-31.998;115.906;2023-08-08T01:51:31;19.00;99.90
5940;DHT22;2995;-31.998;115.906;2023-08-08T01:54:02;19.00;99.90
5940;DHT22;2995;-31.998;115.906;2023-08-08T01:56:35;19.10;99.90
5940;DHT22;2995;-31.998;115.906;2023-08-08T01:59:06;19.20;99.90
5940;DHT22;2995;-31.998;115.906;2023-08-08T02:01:38;19.30;99.90
5940;DHT22;2995;-31.998;115.906;2023-08-08T02:04:09;19.40;99.90
5940;DHT22;2995;-31.998;115.906;2023-08-08T02:06:41;19.50;99.90
5940;DHT22;2995;-31.998;115.906;2023-08-08T02:09:12;19.80;99.90
5940;DHT22;2995;-31.998;115.906;2023-08-08T02:11:46;20.00;99.90
5940;DHT22;2995;-31.998;115.906;2023-08-08T02:14:17;20.20;99.90
5940;DHT22;2995;-31.998;115.906;2023-08-08T02:16:49;20.40;99.90
5940;DHT22;2995;-31.998;115.906;2023-08-08T02:19:20;20.50;99.90
5940;DHT22;2995;-31.998;115.906;2023-08-08T02:21:51;20.60;99.90
5940;DHT22;2995;-31.998;115.906;2023-08-08T02:24:23;20.90;99.90
5940;DHT22;2995;-31.998;115.906;2023-08-08T02:26:56;21.00;99.90
5940;DHT22;2995;-31.998;115.906;2023-08-08T02:29:27;21.00;99.90
5940;DHT22;2995;-31.998;115.906;2023-08-08T02:31:58;21.10;99.90
5940;DHT22;2995;-31.998;115.906;2023-08-08T02:34:30;21.10;99.90
5940;DHT22;2995;-31.998;115.906;2023-08-08T02:37:01;20.90;99.90
5940;DHT22;2995;-31.998;115.906;2023-08-08T02:39:36;20.40;99.90
5940;DHT22;2995;-31.998;115.906;2023-08-08T02:42:09;20.10;99.90
5940;DHT22;2995;-31.998;115.906;2023-08-08T02:44:42;20.10;99.90
5940;DHT22;2995;-31.998;115.906;2023-08-08T02:47:13;19.90;99.90
5940;DHT22;2995;-31.998;115.906;2023-08-08T02:49:44;19.80;99.90
5940;DHT22;2995;-31.998;115.906;2023-08-08T02:52:15;19.90;99.90
5940;DHT22;2995;-31.998;115.906;2023-08-08T02:54:46;20.00;99.90
5940;DHT22;2995;-31.998;115.906;2023-08-08T02:57:20;20.10;99.90
5940;DHT22;2995;-31.998;115.906;2023-08-08T02:59:51;20.10;99.90
5940;DHT22;2995;-31.998;115.906;2023-08-08T03:02:22;20.00;99.90
5940;DHT22;2995;-31.998;115.906;2023-08-08T03:04:54;20.10;99.90
5940;DHT22;2995;-31.998;115.906;2023-08-08T03:07:25;20.30;99.90
5940;DHT22;2995;-31.998;115.906;2023-08-08T03:09:56;20.40;99.90
5940;DHT22;2995;-31.998;115.906;2023-08-08T03:12:29;20.70;99.90
5940;DHT22;2995;-31.998;115.906;2023-08-08T03:15:01;20.90;99.90
5940;DHT22;2995;-31.998;115.906;2023-08-08T03:17:32;20.60;99.90
5940;DHT22;2995;-31.998;115.906;2023-08-08T03:20:03;20.30;99.90
5940;DHT22;2995;-31.998;115.906;2023-08-08T03:22:35;20.10;99.90
5940;DHT22;2995;-31.998;115.906;2023-08-08T03:25:07;19.40;99.90
5940;DHT22;2995;-31.998;115.906;2023-08-08T03:27:40;19.00;99.90
5940;DHT22;2995;-31.998;115.906;2023-08-08T03:30:12;18.60;99.90
5940;DHT22;2995;-31.998;115.906;2023-08-08T03:32:43;18.40;99.90
5940;DHT22;2995;-31.998;115.906;2023-08-08T03:35:14;18.10;99.90
5940;DHT22;2995;-31.998;115.906;2023-08-08T03:37:46;18.10;99.90
5940;DHT22;2995;-31.998;115.906;2023-08-08T03:40:17;17.90;99.90
5940;DHT22;2995;-31.998;115.906;2023-08-08T03:42:50;18.00;99.90
5940;DHT22;2995;-31.998;115.906;2023-08-08T03:45:21;18.00;99.90
5940;DHT22;2995;-31.998;115.906;2023-08-08T03:47:53;18.10;99.90
5940;DHT22;2995;-31.998;115.906;2023-08-08T03:50:25;18.10;99.90
5940;DHT22;2995;-31.998;115.906;2023-08-08T03:52:56;18.10;99.90
5940;DHT22;2995;-31.998;115.906;2023-08-08T03:55:27;18.30;99.90
5940;DHT22;2995;-31.998;115.906;2023-08-08T03:58:00;18.40;99.90
5940;DHT22;2995;-31.998;115.906;2023-08-08T04:00:32;18.70;99.90
5940;DHT22;2995;-31.998;115.906;2023-08-08T04:03:03;18.80;99.90
5940;DHT22;2995;-31.998;115.906;2023-08-08T04:05:34;18.90;99.90
5940;DHT22;2995;-31.998;115.906;2023-08-08T04:08:06;19.10;99.90
5940;DHT22;2995;-31.998;115.906;2023-08-08T04:10:37;19.20;99.90
5940;DHT22;2995;-31.998;115.906;2023-08-08T04:13:10;19.50;99.90
5940;DHT22;2995;-31.998;115.906;2023-08-08T04:15:41;19.60;99.90
5940;DHT22;2995;-31.998;115.906;2023-08-08T04:18:12;19.70;99.90
5940;DHT22;2995;-31.998;115.906;2023-08-08T04:20:44;19.80;99.90
5940;DHT22;2995;-31.998;115.906;2023-08-08T04:23:16;19.70;99.90
5940;DHT22;2995;-31.998;115.906;2023-08-08T04:25:47;19.80;99.90
5940;DHT22;2995;-31.998;115.906;2023-08-08T04:28:20;19.80;99.90
5940;DHT22;2995;-31.998;115.906;2023-08-08T04:30:51;19.70;99.90
5940;DHT22;2995;-31.998;115.906;2023-08-08T04:33:23;19.50;99.90
5940;DHT22;2995;-31.998;115.906;2023-08-08T04:35:55;19.20;99.90
5940;DHT22;2995;-31.998;115.906;2023-08-08T04:38:26;19.20;99.90
5940;DHT22;2995;-31.998;115.906;2023-08-08T04:40:58;19.00;99.90
5940;DHT22;2995;-31.998;115.906;2023-08-08T04:43:31;18.90;99.90
5940;DHT22;2995;-31.998;115.906;2023-08-08T04:46:02;19.10;99.90
5940;DHT22;2995;-31.998;115.906;2023-08-08T04:48:33;19.30;99.90
5940;DHT22;2995;-31.998;115.906;2023-08-08T04:51:06;19.50;99.90
5940;DHT22;2995;-31.998;115.906;2023-08-08T04:53:37;19.70;99.90
5940;DHT22;2995;-31.998;115.906;2023-08-08T04:56:09;19.80;99.90
5940;DHT22;2995;-31.998;115.906;2023-08-08T04:58:45;19.80;99.90
5940;DHT22;2995;-31.998;115.906;2023-08-08T05:01:16;19.80;99.90
5940;DHT22;2995;-31.998;115.906;2023-08-08T05:03:48;20.00;99.90
5940;DHT22;2995;-31.998;115.906;2023-08-08T05:06:19;19.90;99.90
5940;DHT22;2995;-31.998;115.906;2023-08-08T05:08:51;19.90;99.90
5940;DHT22;2995;-31.998;115.906;2023-08-08T05:11:24;19.70;99.90
5940;DHT22;2995;-31.998;115.906;2023-08-08T05:13:58;19.70;99.90
5940;DHT22;2995;-31.998;115.906;2023-08-08T05:16:29;19.70;99.90
5940;DHT22;2995;-31.998;115.906;2023-08-08T05:19:00;19.70;99.90
5940;DHT22;2995;-31.998;115.906;2023-08-08T05:21:31;19.60;99.90
5940;DHT22;2995;-31.998;115.906;2023-08-08T05:24:03;19.50;99.90
5940;DHT22;2995;-31.998;115.906;2023-08-08T05:26:34;19.10;99.90
5940;DHT22;2995;-31.998;115.906;2023-08-08T05:29:07;18.50;99.90
5940;DHT22;2995;-31.998;115.906;2023-08-08T05:31:39;18.50;99.90
5940;DHT22;2995;-31.998;115.906;2023-08-08T05:34:10;18.50;99.90
5940;DHT22;2995;-31.998;115.906;2023-08-08T05:36:41;18.50;99.90
5940;DHT22;2995;-31.998;115.906;2023-08-08T05:39:12;18.60;99.90
5940;DHT22;2995;-31.998;115.906;2023-08-08T05:41:44;18.50;99.90
5940;DHT22;2995;-31.998;115.906;2023-08-08T05:44:17;18.50;99.90
5940;DHT22;2995;-31.998;115.906;2023-08-08T05:46:48;18.20;99.90
5940;DHT22;2995;-31.998;115.906;2023-08-08T05:49:20;18.10;99.90
5940;DHT22;2995;-31.998;115.906;2023-08-08T05:51:51;18.00;99.90
5940;DHT22;2995;-31.998;115.906;2023-08-08T05:54:23;18.10;99.90
5940;DHT22;2995;-31.998;115.906;2023-08-08T05:56:54;18.00;99.90
5940;DHT22;2995;-31.998;115.906;2023-08-08T05:59:27;17.90;99.90
5940;DHT22;2995;-31.998;115.906;2023-08-08T06:01:58;17.90;99.90
5940;DHT22;2995;-31.998;115.906;2023-08-08T06:04:30;17.80;99.90
5940;DHT22;2995;-31.998;115.906;2023-08-08T06:07:01;17.80;99.90
5940;DHT22;2995;-31.998;115.906;2023-08-08T06:09:32;18.00;99.90
5940;DHT22;2995;-31.998;115.906;2023-08-08T06:12:05;18.10;99.90
5940;DHT22;2995;-31.998;115.906;2023-08-08T06:14:38;18.00;99.90
5940;DHT22;2995;-31.998;115.906;2023-08-08T06:17:09;18.00;99.90
5940;DHT22;2995;-31.998;115.906;2023-08-08T06:19:41;18.00;99.90
5940;DHT22;2995;-31.998;115.906;2023-08-08T06:22:12;18.00;99.90
5940;DHT22;2995;-31.998;115.906;2023-08-08T06:24:43;18.00;99.90
5940;DHT22;2995;-31.998;115.906;2023-08-08T06:27:15;18.00;99.90
5940;DHT22;2995;-31.998;115.906;2023-08-08T06:29:48;17.90;99.90
5940;DHT22;2995;-31.998;115.906;2023-08-08T06:32:19;18.00;99.90
5940;DHT22;2995;-31.998;115.906;2023-08-08T06:34:50;18.00;99.90
5940;DHT22;2995;-31.998;115.906;2023-08-08T06:37:23;17.90;99.90
5940;DHT22;2995;-31.998;115.906;2023-08-08T06:39:54;17.70;99.90
5940;DHT22;2995;-31.998;115.906;2023-08-08T06:42:26;17.80;99.90
5940;DHT22;2995;-31.998;115.906;2023-08-08T06:44:59;17.70;99.90
5940;DHT22;2995;-31.998;115.906;2023-08-08T06:47:30;17.80;99.90
5940;DHT22;2995;-31.998;115.906;2023-08-08T06:50:01;17.70;99.90
5940;DHT22;2995;-31.998;115.906;2023-08-08T06:52:33;17.70;99.90
5940;DHT22;2995;-31.998;115.906;2023-08-08T06:55:04;17.80;99.90
5940;DHT22;2995;-31.998;115.906;2023-08-08T06:57:36;17.80;99.90
5940;DHT22;2995;-31.998;115.906;2023-08-08T07:00:10;17.80;99.90
5940;DHT22;2995;-31.998;115.906;2023-08-08T07:02:42;18.00;99.90
5940;DHT22;2995;-31.998;115.906;2023-08-08T07:05:13;17.90;99.90
5940;DHT22;2995;-31.998;115.906;2023-08-08T07:07:44;18.00;99.90
5940;DHT22;2995;-31.998;115.906;2023-08-08T07:10:16;17.90;99.90
5940;DHT22;2995;-31.998;115.906;2023-08-08T07:12:47;17.90;99.90
5940;DHT22;2995;-31.998;115.906;2023-08-08T07:15:21;18.00;99.90
5940;DHT22;2995;-31.998;115.906;2023-08-08T07:17:53;18.00;99.90
5940;DHT22;2995;-31.998;115.906;2023-08-08T07:20:24;18.00;99.90
5940;DHT22;2995;-31.998;115.906;2023-08-08T07:22:57;18.00;99.90
5940;DHT22;2995;-31.998;115.906;2023-08-08T07:25:29;18.00;99.90
5940;DHT22;2995;-31.998;115.906;2023-08-08T07:28:00;17.70;99.90
5940;DHT22;2995;-31.998;115.906;2023-08-08T07:30:33;17.50;99.90
5940;DHT22;2995;-31.998;115.906;2023-08-08T07:33:05;17.30;99.90
5940;DHT22;2995;-31.998;115.906;2023-08-08T07:35:36;17.20;99.90
5940;DHT22;2995;-31.998;115.906;2023-08-08T07:38:07;17.00;99.90
5940;DHT22;2995;-31.998;115.906;2023-08-08T07:40:38;17.10;99.90
5940;DHT22;2995;-31.998;115.906;2023-08-08T07:43:10;17.10;99.90
5940;DHT22;2995;-31.998;115.906;2023-08-08T07:45:43;17.10;99.90
5940;DHT22;2995;-31.998;115.906;2023-08-08T07:48:14;17.10;99.90
5940;DHT22;2995;-31.998;115.906;2023-08-08T07:50:46;17.10;99.90
5940;DHT22;2995;-31.998;115.906;2023-08-08T07:53:17;17.10;99.90
5940;DHT22;2995;-31.998;115.906;2023-08-08T07:55:48;17.10;99.90
5940;DHT22;2995;-31.998;115.906;2023-08-08T07:58:19;17.20;99.90
5940;DHT22;2995;-31.998;115.906;2023-08-08T08:00:55;17.00;99.90
5940;DHT22;2995;-31.998;115.906;2023-08-08T08:03:28;16.90;99.90
5940;DHT22;2995;-31.998;115.906;2023-08-08T08:05:59;16.80;99.90
5940;DHT22;2995;-31.998;115.906;2023-08-08T08:08:30;16.60;99.90
5940;DHT22;2995;-31.998;115.906;2023-08-08T08:11:02;16.60;99.90
5940;DHT22;2995;-31.998;115.906;2023-08-08T08:13:33;16.50;99.90
5940;DHT22;2995;-31.998;115.906;2023-08-08T08:16:07;16.30;99.90
5940;DHT22;2995;-31.998;115.906;2023-08-08T08:18:38;16.20;99.90
5940;DHT22;2995;-31.998;115.906;2023-08-08T08:21:13;16.30;99.90
5940;DHT22;2995;-31.998;115.906;2023-08-08T08:23:45;16.20;99.90
5940;DHT22;2995;-31.998;115.906;2023-08-08T08:26:17;16.10;99.90
5940;DHT22;2995;-31.998;115.906;2023-08-08T08:28:48;16.10;99.90
5940;DHT22;2995;-31.998;115.906;2023-08-08T08:31:21;16.20;99.90
5940;DHT22;2995;-31.998;115.906;2023-08-08T08:33:52;16.10;99.90
5940;DHT22;2995;-31.998;115.906;2023-08-08T08:36:24;16.10;99.90
5940;DHT22;2995;-31.998;115.906;2023-08-08T08:38:56;16.10;99.90
5940;DHT22;2995;-31.998;115.906;2023-08-08T08:41:28;16.30;99.90
5940;DHT22;2995;-31.998;115.906;2023-08-08T08:44:01;16.20;99.90
5940;DHT22;2995;-31.998;115.906;2023-08-08T08:46:36;16.30;99.90
5940;DHT22;2995;-31.998;115.906;2023-08-08T08:49:08;16.30;99.90
5940;DHT22;2995;-31.998;115.906;2023-08-08T08:51:40;16.30;99.90
5940;DHT22;2995;-31.998;115.906;2023-08-08T08:54:12;16.30;99.90
5940;DHT22;2995;-31.998;115.906;2023-08-08T08:56:44;16.30;99.90
5940;DHT22;2995;-31.998;115.906;2023-08-08T08:59:15;16.20;99.90
5940;DHT22;2995;-31.998;115.906;2023-08-08T09:01:48;16.10;99.90
5940;DHT22;2995;-31.998;115.906;2023-08-08T09:04:21;15.90;99.90
5940;DHT22;2995;-31.998;115.906;2023-08-08T09:06:52;15.80;99.90
5940;DHT22;2995;-31.998;115.906;2023-08-08T09:09:24;15.80;99.90
5940;DHT22;2995;-31.998;115.906;2023-08-08T09:11:55;15.70;99.90
5940;DHT22;2995;-31.998;115.906;2023-08-08T09:14:27;15.50;99.90
5940;DHT22;2995;-31.998;115.906;2023-08-08T09:17:00;15.40;99.90
5940;DHT22;2995;-31.998;115.906;2023-08-08T09:19:32;15.40;99.90
5940;DHT22;2995;-31.998;115.906;2023-08-08T09:22:03;15.50;99.90
5940;DHT22;2995;-31.998;115.906;2023-08-08T09:24:37;15.40;99.90
5940;DHT22;2995;-31.998;115.906;2023-08-08T09:27:09;15.30;99.90
5940;DHT22;2995;-31.998;115.906;2023-08-08T09:29:40;15.30;99.90
5940;DHT22;2995;-31.998;115.906;2023-08-08T09:32:14;15.40;99.90
5940;DHT22;2995;-31.998;115.906;2023-08-08T09:34:46;15.40;99.90
5940;DHT22;2995;-31.998;115.906;2023-08-08T09:37:17;15.40;99.90
5940;DHT22;2995;-31.998;115.906;2023-08-08T09:39:57;15.40;99.90
5940;DHT22;2995;-31.998;115.906;2023-08-08T09:42:28;15.40;99.90
5940;DHT22;2995;-31.998;115.906;2023-08-08T09:45:00;15.40;99.90
5940;DHT22;2995;-31.998;115.906;2023-08-08T09:47:33;15.40;99.90
5940;DHT22;2995;-31.998;115.906;2023-08-08T09:50:06;15.50;99.90
5940;DHT22;2995;-31.998;115.906;2023-08-08T09:52:37;15.40;99.90
5940;DHT22;2995;-31.998;115.906;2023-08-08T09:55:09;15.40;99.90
5940;DHT22;2995;-31.998;115.906;2023-08-08T09:57:42;15.40;99.90
5940;DHT22;2995;-31.998;115.906;2023-08-08T10:00:13;15.40;99.90
5940;DHT22;2995;-31.998;115.906;2023-08-08T10:02:48;15.40;99.90
5940;DHT22;2995;-31.998;115.906;2023-08-08T10:05:19;15.40;99.90
5940;DHT22;2995;-31.998;115.906;2023-08-08T10:07:50;15.50;99.90
5940;DHT22;2995;-31.998;115.906;2023-08-08T10:10:21;15.40;99.90
5940;DHT22;2995;-31.998;115.906;2023-08-08T10:12:53;15.40;99.90
5940;DHT22;2995;-31.998;115.906;2023-08-08T10:15:27;15.30;99.90
5940;DHT22;2995;-31.998;115.906;2023-08-08T10:18:01;15.10;99.90
5940;DHT22;2995;-31.998;115.906;2023-08-08T10:20:33;15.10;99.90
5940;DHT22;2995;-31.998;115.906;2023-08-08T10:23:06;15.20;99.90
5940;DHT22;2995;-31.998;115.906;2023-08-08T10:25:38;15.10;99.90
5940;DHT22;2995;-31.998;115.906;2023-08-08T10:28:16;15.00;99.90
5940;DHT22;2995;-31.998;115.906;2023-08-08T10:30:48;14.90;99.90
5940;DHT22;2995;-31.998;115.906;2023-08-08T10:33:23;15.10;99.90
5940;DHT22;2995;-31.998;115.906;2023-08-08T10:36:02;15.20;99.90
5940;DHT22;2995;-31.998;115.906;2023-08-08T10:38:42;15.20;99.90
5940;DHT22;2995;-31.998;115.906;2023-08-08T10:41:16;15.40;99.90
5940;DHT22;2995;-31.998;115.906;2023-08-08T10:43:52;15.30;99.90
5940;DHT22;2995;-31.998;115.906;2023-08-08T10:46:27;15.40;99.90
5940;DHT22;2995;-31.998;115.906;2023-08-08T10:49:01;15.50;99.90
5940;DHT22;2995;-31.998;115.906;2023-08-08T10:51:38;15.50;99.90
5940;DHT22;2995;-31.998;115.906;2023-08-08T10:54:15;15.30;99.90
5940;DHT22;2995;-31.998;115.906;2023-08-08T10:56:53;15.20;99.90
5940;DHT22;2995;-31.998;115.906;2023-08-08T10:59:25;15.20;99.90
5940;DHT22;2995;-31.998;115.906;2023-08-08T11:02:01;15.10;99.90
5940;DHT22;2995;-31.998;115.906;2023-08-08T11:04:34;15.00;99.90
5940;DHT22;2995;-31.998;115.906;2023-08-08T11:07:06;15.00;99.90
5940;DHT22;2995;-31.998;115.906;2023-08-08T11:09:37;14.80;99.90
5940;DHT22;2995;-31.998;115.906;2023-08-08T11:12:15;14.80;99.90
5940;DHT22;2995;-31.998;115.906;2023-08-08T11:14:46;14.90;99.90
5940;DHT22;2995;-31.998;115.906;2023-08-08T11:17:17;14.80;99.90
5940;DHT22;2995;-31.998;115.906;2023-08-08T11:19:51;14.80;99.90
5940;DHT22;2995;-31.998;115.906;2023-08-08T11:22:23;14.80;99.90
5940;DHT22;2995;-31.998;115.906;2023-08-08T11:24:54;14.80;99.90
5940;DHT22;2995;-31.998;115.906;2023-08-08T11:27:31;14.80;99.90
5940;DHT22;2995;-31.998;115.906;2023-08-08T11:30:02;14.70;99.90
5940;DHT22;2995;-31.998;115.906;2023-08-08T11:32:35;14.70;99.90
5940;DHT22;2995;-31.998;115.906;2023-08-08T11:35:08;14.60;99.90
5940;DHT22;2995;-31.998;115.906;2023-08-08T11:37:40;14.60;99.90
5940;DHT22;2995;-31.998;115.906;2023-08-08T11:40:11;14.50;99.90
5940;DHT22;2995;-31.998;115.906;2023-08-08T11:42:43;14.60;99.90
5940;DHT22;2995;-31.998;115.906;2023-08-08T11:45:15;14.50;99.90
5940;DHT22;2995;-31.998;115.906;2023-08-08T11:47:49;14.60;99.90
5940;DHT22;2995;-31.998;115.906;2023-08-08T11:50:24;14.70;99.90
5940;DHT22;2995;-31.998;115.906;2023-08-08T11:52:56;14.70;99.90
5940;DHT22;2995;-31.998;115.906;2023-08-08T11:55:31;14.80;99.90
5940;DHT22;2995;-31.998;115.906;2023-08-08T11:58:03;14.80;99.90
5940;DHT22;2995;-31.998;115.906;2023-08-08T12:00:34;14.70;99.90
5940;DHT22;2995;-31.998;115.906;2023-08-08T12:03:06;14.80;99.90
5940;DHT22;2995;-31.998;115.906;2023-08-08T12:05:41;14.60;99.90
5940;DHT22;2995;-31.998;115.906;2023-08-08T12:08:12;14.60;99.90
5940;DHT22;2995;-31.998;115.906;2023-08-08T12:10:48;14.60;99.90
5940;DHT22;2995;-31.998;115.906;2023-08-08T12:13:22;14.60;99.90
5940;DHT22;2995;-31.998;115.906;2023-08-08T12:15:54;14.60;99.90
5940;DHT22;2995;-31.998;115.906;2023-08-08T12:18:27;14.50;99.90
5940;DHT22;2995;-31.998;115.906;2023-08-08T12:21:02;14.70;99.90
5940;DHT22;2995;-31.998;115.906;2023-08-08T12:23:34;14.60;99.90
5940;DHT22;2995;-31.998;115.906;2023-08-08T12:26:06;14.40;99.90
5940;DHT22;2995;-31.998;115.906;2023-08-08T12:28:38;14.50;99.90
5940;DHT22;2995;-31.998;115.906;2023-08-08T12:31:09;14.50;99.90
5940;DHT22;2995;-31.998;115.906;2023-08-08T12:33:40;14.40;99.90
5940;DHT22;2995;-31.998;115.906;2023-08-08T12:36:13;14.50;99.90
5940;DHT22;2995;-31.998;115.906;2023-08-08T12:38:45;14.50;99.90
5940;DHT22;2995;-31.998;115.906;2023-08-08T12:41:16;14.40;99.90
5940;DHT22;2995;-31.998;115.906;2023-08-08T12:43:47;14.50;99.90
5940;DHT22;2995;-31.998;115.906;2023-08-08T12:46:18;14.40;99.90
5940;DHT22;2995;-31.998;115.906;2023-08-08T12:48:50;14.50;99.90
5940;DHT22;2995;-31.998;115.906;2023-08-08T12:51:23;14.40;99.90
5940;DHT22;2995;-31.998;115.906;2023-08-08T12:53:54;14.40;99.90
5940;DHT22;2995;-31.998;115.906;2023-08-08T12:56:25;14.40;99.90
5940;DHT22;2995;-31.998;115.906;2023-08-08T12:58:57;14.40;99.90
5940;DHT22;2995;-31.998;115.906;2023-08-08T13:01:31;14.40;99.90
5940;DHT22;2995;-31.998;115.906;2023-08-08T13:04:02;14.30;99.90
5940;DHT22;2995;-31.998;115.906;2023-08-08T13:06:35;14.20;99.90
5940;DHT22;2995;-31.998;115.906;2023-08-08T13:09:07;14.20;99.90
5940;DHT22;2995;-31.998;115.906;2023-08-08T13:11:38;14.20;99.90
5940;DHT22;2995;-31.998;115.906;2023-08-08T13:14:10;14.10;99.90
5940;DHT22;2995;-31.998;115.906;2023-08-08T13:16:41;14.10;99.90
5940;DHT22;2995;-31.998;115.906;2023-08-08T13:19:13;14.10;99.90
5940;DHT22;2995;-31.998;115.906;2023-08-08T13:21:51;14.10;99.90
5940;DHT22;2995;-31.998;115.906;2023-08-08T13:24:22;14.00;99.90
5940;DHT22;2995;-31.998;115.906;2023-08-08T13:26:54;14.00;99.90
5940;DHT22;2995;-31.998;115.906;2023-08-08T13:29:26;13.90;99.90
5940;DHT22;2995;-31.998;115.906;2023-08-08T13:31:58;13.90;99.90
5940;DHT22;2995;-31.998;115.906;2023-08-08T13:34:30;14.00;99.90
5940;DHT22;2995;-31.998;115.906;2023-08-08T13:37:03;13.90;99.90
5940;DHT22;2995;-31.998;115.906;2023-08-08T13:39:34;13.80;99.90
5940;DHT22;2995;-31.998;115.906;2023-08-08T13:42:06;13.80;99.90
5940;DHT22;2995;-31.998;115.906;2023-08-08T13:44:37;13.80;99.90
5940;DHT22;2995;-31.998;115.906;2023-08-08T13:47:08;13.60;99.90
5940;DHT22;2995;-31.998;115.906;2023-08-08T13:49:39;13.70;99.90
5940;DHT22;2995;-31.998;115.906;2023-08-08T13:52:12;13.70;99.90
5940;DHT22;2995;-31.998;115.906;2023-08-08T13:54:44;13.60;99.90
5940;DHT22;2995;-31.998;115.906;2023-08-08T13:57:15;13.70;99.90
5940;DHT22;2995;-31.998;115.906;2023-08-08T13:59:46;13.80;99.90
5940;DHT22;2995;-31.998;115.906;2023-08-08T14:02:18;13.70;99.90
5940;DHT22;2995;-31.998;115.906;2023-08-08T14:04:49;13.70;99.90
5940;DHT22;2995;-31.998;115.906;2023-08-08T14:07:22;13.70;99.90
5940;DHT22;2995;-31.998;115.906;2023-08-08T14:09:53;13.80;99.90
5940;DHT22;2995;-31.998;115.906;2023-08-08T14:12:25;13.80;99.90
5940;DHT22;2995;-31.998;115.906;2023-08-08T14:14:56;13.80;99.90
5940;DHT22;2995;-31.998;115.906;2023-08-08T14:17:27;13.80;99.90
5940;DHT22;2995;-31.998;115.906;2023-08-08T14:19:59;13.80;99.90
5940;DHT22;2995;-31.998;115.906;2023-08-08T14:22:33;13.70;99.90
5940;DHT22;2995;-31.998;115.906;2023-08-08T14:25:05;13.70;99.90
5940;DHT22;2995;-31.998;115.906;2023-08-08T14:27:36;13.70;99.90
5940;DHT22;2995;-31.998;115.906;2023-08-08T14:30:08;13.70;99.90
5940;DHT22;2995;-31.998;115.906;2023-08-08T14:32:39;13.70;99.90
5940;DHT22;2995;-31.998;115.906;2023-08-08T14:35:11;13.60;99.90
5940;DHT22;2995;-31.998;115.906;2023-08-08T14:37:44;13.80;99.90
5940;DHT22;2995;-31.998;115.906;2023-08-08T14:40:15;13.80;99.90
5940;DHT22;2995;-31.998;115.906;2023-08-08T14:42:46;13.80;99.90
5940;DHT22;2995;-31.998;115.906;2023-08-08T14:45:18;13.80;99.90
5940;DHT22;2995;-31.998;115.906;2023-08-08T14:47:49;13.90;99.90
5940;DHT22;2995;-31.998;115.906;2023-08-08T14:50:20;13.80;99.90
5940;DHT22;2995;-31.998;115.906;2023-08-08T14:52:54;13.70;99.90
5940;DHT22;2995;-31.998;115.906;2023-08-08T14:55:25;13.70;99.90
5940;DHT22;2995;-31.998;115.906;2023-08-08T14:57:56;13.60;99.90
5940;DHT22;2995;-31.998;115.906;2023-08-08T15:00:28;13.50;99.90
5940;DHT22;2995;-31.998;115.906;2023-08-08T15:02:59;13.40;99.90
5940;DHT22;2995;-31.998;115.906;2023-08-08T15:05:31;13.30;99.90
5940;DHT22;2995;-31.998;115.906;2023-08-08T15:08:04;13.20;99.90
5940;DHT22;2995;-31.998;115.906;2023-08-08T15:10:35;13.20;99.90
5940;DHT22;2995;-31.998;115.906;2023-08-08T15:13:06;13.00;99.90
5940;DHT22;2995;-31.998;115.906;2023-08-08T15:15:38;13.00;99.90
5940;DHT22;2995;-31.998;115.906;2023-08-08T15:18:09;13.00;99.90
5940;DHT22;2995;-31.998;115.906;2023-08-08T15:20:40;13.00;99.90
5940;DHT22;2995;-31.998;115.906;2023-08-08T15:23:13;13.00;99.90
5940;DHT22;2995;-31.998;115.906;2023-08-08T15:25:45;13.00;99.90
5940;DHT22;2995;-31.998;115.906;2023-08-08T15:28:16;12.90;99.90
5940;DHT22;2995;-31.998;115.906;2023-08-08T15:30:47;12.80;99.90
5940;DHT22;2995;-31.998;115.906;2023-08-08T15:33:18;12.80;99.90
5940;DHT22;2995;-31.998;115.906;2023-08-08T15:35:50;12.80;99.90
5940;DHT22;2995;-31.998;115.906;2023-08-08T15:38:23;12.80;99.90
5940;DHT22;2995;-31.998;115.906;2023-08-08T15:40:54;12.60;99.90
5940;DHT22;2995;-31.998;115.906;2023-08-08T15:43:26;12.60;99.90
5940;DHT22;2995;-31.998;115.906;2023-08-08T15:45:58;12.40;99.90